EJU45FH LFBD-LEPA
Flight info
| Callsign | EJU45FH |
|---|---|
| Flight time | 1h 15m |
| Altitude | 35000 |
| Route | OBLOC DCT SECHE DCT AGN DCT TOU DCT LOMRA DCT ROCAN DCT IBRAP DCT LUKEV DCT LORES |
| Aircraft | A319/M-SDE2E3FGIJ1RWXYZ/LB1 |
Departure
| Time | 2026-05-08 18:17 |
|---|---|
| Airport | Bordeaux–Mérignac Airport (LFBD) |
Arrival
| Time | 2026-05-08 19:32 |
|---|---|
| Airport | Palma de Mallorca Airport (LEPA) |
| Time | Latitude | Longitude | Altitude | Speed | Heading |
|---|---|---|---|---|---|
| 2026-05-08 18:07 | 44.83129 | -0.70446 | 164 ft | 0 kts | 114° |
| 2026-05-08 18:10 | 44.83135 | -0.70465 | 164 ft | 4 kts | 118° |
| 2026-05-08 18:10 | 44.83146 | -0.70495 | 164 ft | 1 kts | 114° |
| 2026-05-08 18:10 | 44.83156 | -0.70525 | 164 ft | 4 kts | 106° |
| 2026-05-08 18:10 | 44.83155 | -0.70551 | 164 ft | 2 kts | 45° |
| 2026-05-08 18:11 | 44.83146 | -0.70565 | 164 ft | 0 kts | 45° |
| 2026-05-08 18:14 | 44.83148 | -0.70562 | 164 ft | 2 kts | 45° |
| 2026-05-08 18:14 | 44.83182 | -0.70543 | 163 ft | 9 kts | 6° |
| 2026-05-08 18:15 | 44.83265 | -0.70509 | 163 ft | 16 kts | 43° |
| 2026-05-08 18:15 | 44.83365 | -0.70371 | 162 ft | 23 kts | 45° |
| 2026-05-08 18:15 | 44.83480 | -0.70207 | 161 ft | 24 kts | 45° |
| 2026-05-08 18:15 | 44.83587 | -0.70055 | 161 ft | 19 kts | 44° |
| 2026-05-08 18:16 | 44.83705 | -0.70030 | 160 ft | 19 kts | 333° |
| 2026-05-08 18:16 | 44.83800 | -0.70141 | 160 ft | 18 kts | 285° |
| 2026-05-08 18:16 | 44.83747 | -0.70279 | 160 ft | 17 kts | 225° |
| 2026-05-08 18:16 | 44.83606 | -0.70478 | 160 ft | 59 kts | 225° |
| 2026-05-08 18:17 | 44.83144 | -0.71137 | 165 ft | 127 kts | 225° |
| 2026-05-08 18:17 | 44.82388 | -0.72172 | 331 ft | 161 kts | 220° |
| 2026-05-08 18:17 | 44.81620 | -0.73311 | 961 ft | 162 kts | 225° |
| 2026-05-08 18:17 | 44.80840 | -0.74472 | 1555 ft | 170 kts | 223° |
| 2026-05-08 18:18 | 44.79950 | -0.75736 | 1918 ft | 194 kts | 223° |
| 2026-05-08 18:18 | 44.78934 | -0.77167 | 2338 ft | 218 kts | 223° |
| 2026-05-08 18:18 | 44.77829 | -0.78722 | 3042 ft | 228 kts | 222° |
| 2026-05-08 18:18 | 44.76482 | -0.80050 | 3582 ft | 249 kts | 202° |
| 2026-05-08 18:19 | 44.74764 | -0.80600 | 4331 ft | 259 kts | 181° |
| 2026-05-08 18:19 | 44.72978 | -0.80201 | 5274 ft | 263 kts | 160° |
| 2026-05-08 18:19 | 44.71400 | -0.78862 | 6228 ft | 269 kts | 138° |
| 2026-05-08 18:19 | 44.70292 | -0.76714 | 7107 ft | 276 kts | 115° |
| 2026-05-08 18:20 | 44.69790 | -0.74091 | 8025 ft | 281 kts | 103° |
| 2026-05-08 18:20 | 44.69232 | -0.71457 | 8942 ft | 282 kts | 114° |
| 2026-05-08 18:20 | 44.68301 | -0.69027 | 9842 ft | 283 kts | 127° |
| 2026-05-08 18:20 | 44.67141 | -0.66744 | 10406 ft | 299 kts | 122° |
| 2026-05-08 18:21 | 44.66341 | -0.63923 | 10781 ft | 322 kts | 105° |
| 2026-05-08 18:21 | 44.66165 | -0.60752 | 11476 ft | 332 kts | 89° |
| 2026-05-08 18:21 | 44.66293 | -0.57492 | 12285 ft | 336 kts | 89° |
| 2026-05-08 18:21 | 44.66415 | -0.54197 | 13083 ft | 339 kts | 90° |
| 2026-05-08 18:22 | 44.66531 | -0.50878 | 13842 ft | 343 kts | 90° |
| 2026-05-08 18:22 | 44.66644 | -0.47509 | 14521 ft | 347 kts | 90° |
| 2026-05-08 18:22 | 44.66756 | -0.44101 | 15190 ft | 351 kts | 90° |
| 2026-05-08 18:22 | 44.66867 | -0.40667 | 15842 ft | 355 kts | 91° |
| 2026-05-08 18:23 | 44.66981 | -0.37180 | 16505 ft | 359 kts | 91° |
| 2026-05-08 18:23 | 44.67095 | -0.33664 | 17154 ft | 363 kts | 91° |
| 2026-05-08 18:23 | 44.67210 | -0.30097 | 17805 ft | 367 kts | 91° |
| 2026-05-08 18:23 | 44.67324 | -0.26495 | 18415 ft | 371 kts | 91° |
| 2026-05-08 18:24 | 44.67441 | -0.22851 | 18996 ft | 374 kts | 91° |
| 2026-05-08 18:24 | 44.67538 | -0.19180 | 19600 ft | 376 kts | 94° |
| 2026-05-08 18:24 | 44.67270 | -0.15552 | 20182 ft | 374 kts | 105° |
| 2026-05-08 18:24 | 44.66512 | -0.12066 | 20795 ft | 373 kts | 116° |
| 2026-05-08 18:25 | 44.65387 | -0.08782 | 21395 ft | 374 kts | 119° |
| 2026-05-08 18:25 | 44.64226 | -0.05512 | 21981 ft | 376 kts | 119° |
| 2026-05-08 18:25 | 44.63055 | -0.02205 | 22568 ft | 379 kts | 118° |
| 2026-05-08 18:25 | 44.61877 | 0.01129 | 23076 ft | 383 kts | 118° |
| 2026-05-08 18:26 | 44.60690 | 0.04486 | 23608 ft | 386 kts | 118° |
| 2026-05-08 18:26 | 44.59488 | 0.07876 | 24074 ft | 389 kts | 118° |
| 2026-05-08 18:26 | 44.58283 | 0.11270 | 24545 ft | 390 kts | 118° |
| 2026-05-08 18:26 | 44.57068 | 0.14690 | 25013 ft | 392 kts | 118° |
| 2026-05-08 18:27 | 44.55845 | 0.18124 | 25465 ft | 394 kts | 118° |
| 2026-05-08 18:27 | 44.55032 | 0.20402 | 25771 ft | 395 kts | 118° |
| 2026-05-08 18:27 | 44.53378 | 0.25027 | 26367 ft | 398 kts | 118° |
| 2026-05-08 18:27 | 44.52140 | 0.28489 | 26805 ft | 400 kts | 118° |
| 2026-05-08 18:28 | 44.50891 | 0.31982 | 27226 ft | 401 kts | 118° |
| 2026-05-08 18:28 | 44.49635 | 0.35491 | 27665 ft | 403 kts | 118° |
| 2026-05-08 18:28 | 44.48373 | 0.39002 | 28082 ft | 406 kts | 118° |
| 2026-05-08 18:28 | 44.47095 | 0.42546 | 28439 ft | 409 kts | 118° |
| 2026-05-08 18:29 | 44.45787 | 0.46099 | 28825 ft | 411 kts | 122° |
| 2026-05-08 18:29 | 44.44144 | 0.49351 | 29227 ft | 411 kts | 132° |
| 2026-05-08 18:29 | 44.42080 | 0.52113 | 29629 ft | 411 kts | 143° |
| 2026-05-08 18:29 | 44.39669 | 0.54270 | 30004 ft | 412 kts | 154° |
| 2026-05-08 18:30 | 44.37073 | 0.55968 | 30320 ft | 414 kts | 155° |
| 2026-05-08 18:30 | 44.34452 | 0.57667 | 30639 ft | 416 kts | 155° |
| 2026-05-08 18:30 | 44.31824 | 0.59381 | 30934 ft | 417 kts | 155° |
| 2026-05-08 18:30 | 44.29197 | 0.61100 | 31285 ft | 419 kts | 155° |
| 2026-05-08 18:31 | 44.26551 | 0.62830 | 31631 ft | 419 kts | 155° |
| 2026-05-08 18:31 | 44.23909 | 0.64558 | 32059 ft | 418 kts | 155° |
| 2026-05-08 18:31 | 44.21314 | 0.66260 | 32489 ft | 417 kts | 155° |
| 2026-05-08 18:31 | 44.18656 | 0.67998 | 32841 ft | 418 kts | 156° |
| 2026-05-08 18:32 | 44.16055 | 0.69688 | 33217 ft | 417 kts | 156° |
| 2026-05-08 18:32 | 44.13418 | 0.71394 | 33622 ft | 417 kts | 156° |
| 2026-05-08 18:32 | 44.10796 | 0.73092 | 34011 ft | 416 kts | 156° |
| 2026-05-08 18:32 | 44.08168 | 0.74794 | 34343 ft | 416 kts | 156° |
| 2026-05-08 18:33 | 44.05515 | 0.76511 | 34612 ft | 416 kts | 156° |
| 2026-05-08 18:33 | 44.02922 | 0.78186 | 34874 ft | 416 kts | 156° |
| 2026-05-08 18:33 | 43.97684 | 0.81563 | 34935 ft | 409 kts | 158° |
| 2026-05-08 18:34 | 43.92564 | 0.84872 | 34930 ft | 408 kts | 156° |
| 2026-05-08 18:34 | 43.87996 | 0.89579 | 34928 ft | 415 kts | 135° |
| 2026-05-08 18:35 | 43.84630 | 0.96148 | 34931 ft | 420 kts | 126° |
| 2026-05-08 18:35 | 43.81431 | 1.02938 | 34927 ft | 421 kts | 127° |
| 2026-05-08 18:36 | 43.78213 | 1.09716 | 34933 ft | 423 kts | 127° |
| 2026-05-08 18:36 | 43.74970 | 1.16541 | 34925 ft | 424 kts | 127° |
| 2026-05-08 18:37 | 43.71721 | 1.23355 | 34950 ft | 425 kts | 127° |
| 2026-05-08 18:37 | 43.68465 | 1.30167 | 34966 ft | 425 kts | 128° |
| 2026-05-08 18:38 | 43.64849 | 1.36552 | 34970 ft | 422 kts | 133° |
| 2026-05-08 18:38 | 43.61164 | 1.42875 | 34963 ft | 422 kts | 133° |
| 2026-05-08 18:39 | 43.57473 | 1.49183 | 34925 ft | 424 kts | 133° |
| 2026-05-08 18:39 | 43.53759 | 1.55516 | 34917 ft | 425 kts | 133° |
| 2026-05-08 18:40 | 43.50037 | 1.61858 | 34943 ft | 425 kts | 133° |
| 2026-05-08 18:40 | 43.46317 | 1.68178 | 34951 ft | 425 kts | 133° |
| 2026-05-08 18:41 | 43.43221 | 1.73432 | 34953 ft | 425 kts | 133° |
| 2026-05-08 18:41 | 43.39492 | 1.79736 | 34928 ft | 426 kts | 134° |
| 2026-05-08 18:42 | 43.35285 | 1.85312 | 34932 ft | 417 kts | 151° |
| 2026-05-08 18:42 | 43.30071 | 1.88437 | 34930 ft | 406 kts | 171° |
| 2026-05-08 18:43 | 43.24504 | 1.89248 | 34935 ft | 403 kts | 180° |
| 2026-05-08 18:43 | 43.18899 | 1.89773 | 34940 ft | 404 kts | 180° |
| 2026-05-08 18:44 | 43.13290 | 1.90315 | 34941 ft | 405 kts | 180° |
| 2026-05-08 18:44 | 43.07672 | 1.90859 | 34951 ft | 405 kts | 180° |
| 2026-05-08 18:45 | 43.02041 | 1.91404 | 34944 ft | 405 kts | 179° |
| 2026-05-08 18:45 | 42.96421 | 1.91939 | 34944 ft | 405 kts | 180° |
| 2026-05-08 18:46 | 42.90798 | 1.92462 | 34953 ft | 405 kts | 180° |
| 2026-05-08 18:46 | 42.85169 | 1.92991 | 34959 ft | 406 kts | 180° |
| 2026-05-08 18:47 | 42.79532 | 1.93519 | 34968 ft | 406 kts | 180° |
| 2026-05-08 18:47 | 42.73901 | 1.94053 | 34981 ft | 406 kts | 180° |
| 2026-05-08 18:48 | 42.68274 | 1.94604 | 34977 ft | 407 kts | 178° |
| 2026-05-08 18:48 | 42.62712 | 1.96333 | 34992 ft | 411 kts | 170° |
| 2026-05-08 18:49 | 42.57159 | 1.98336 | 35002 ft | 412 kts | 171° |
| 2026-05-08 18:49 | 42.51623 | 2.00333 | 35011 ft | 412 kts | 171° |
| 2026-05-08 18:50 | 42.46087 | 2.02316 | 35025 ft | 411 kts | 171° |
| 2026-05-08 18:50 | 42.40564 | 2.04293 | 35019 ft | 410 kts | 171° |
| 2026-05-08 18:51 | 42.35037 | 2.06271 | 35014 ft | 411 kts | 171° |
| 2026-05-08 18:51 | 42.29507 | 2.08246 | 35019 ft | 411 kts | 171° |
| 2026-05-08 18:52 | 42.23963 | 2.10206 | 35025 ft | 411 kts | 171° |
| 2026-05-08 18:52 | 42.18434 | 2.12158 | 35028 ft | 411 kts | 171° |
| 2026-05-08 18:53 | 42.12898 | 2.14117 | 35006 ft | 412 kts | 171° |
| 2026-05-08 18:53 | 42.07375 | 2.16069 | 35013 ft | 413 kts | 171° |
| 2026-05-08 18:54 | 42.01817 | 2.18027 | 35019 ft | 413 kts | 171° |
| 2026-05-08 18:54 | 41.96255 | 2.19984 | 34988 ft | 413 kts | 172° |
| 2026-05-08 18:55 | 41.87888 | 2.22917 | 35005 ft | 415 kts | 172° |
| 2026-05-08 18:56 | 41.82302 | 2.24869 | 35013 ft | 415 kts | 172° |
| 2026-05-08 18:56 | 41.76707 | 2.26820 | 35019 ft | 416 kts | 172° |
| 2026-05-08 18:57 | 41.71101 | 2.28786 | 34998 ft | 416 kts | 173° |
| 2026-05-08 18:57 | 41.65500 | 2.30746 | 35011 ft | 416 kts | 173° |
| 2026-05-08 18:58 | 41.59897 | 2.32687 | 35017 ft | 416 kts | 173° |
| 2026-05-08 18:58 | 41.54295 | 2.34636 | 35014 ft | 416 kts | 173° |
| 2026-05-08 18:59 | 41.48683 | 2.36587 | 34999 ft | 417 kts | 174° |
| 2026-05-08 18:59 | 41.43066 | 2.38533 | 35003 ft | 417 kts | 174° |
| 2026-05-08 19:00 | 41.37443 | 2.40472 | 35011 ft | 418 kts | 174° |
| 2026-05-08 19:00 | 41.31815 | 2.42412 | 34986 ft | 418 kts | 175° |
| 2026-05-08 19:01 | 41.26182 | 2.44347 | 34997 ft | 419 kts | 175° |
| 2026-05-08 19:01 | 41.20526 | 2.46297 | 35007 ft | 420 kts | 175° |
| 2026-05-08 19:02 | 41.14869 | 2.48242 | 35011 ft | 420 kts | 175° |
| 2026-05-08 19:02 | 41.09207 | 2.50177 | 34993 ft | 421 kts | 176° |
| 2026-05-08 19:03 | 41.03527 | 2.52117 | 35000 ft | 421 kts | 176° |
| 2026-05-08 19:03 | 40.97847 | 2.54066 | 35006 ft | 422 kts | 176° |
| 2026-05-08 19:04 | 40.92159 | 2.56008 | 35000 ft | 422 kts | 176° |
| 2026-05-08 19:04 | 40.86467 | 2.57937 | 34995 ft | 423 kts | 178° |
| 2026-05-08 19:05 | 40.80707 | 2.59879 | 34781 ft | 432 kts | 178° |
| 2026-05-08 19:05 | 40.77755 | 2.60863 | 33890 ft | 440 kts | 179° |
| 2026-05-08 19:05 | 40.74800 | 2.61864 | 33380 ft | 435 kts | 178° |
| 2026-05-08 19:05 | 40.71892 | 2.62865 | 32875 ft | 431 kts | 177° |
| 2026-05-08 19:06 | 40.69006 | 2.63859 | 32375 ft | 427 kts | 177° |
| 2026-05-08 19:06 | 40.66131 | 2.64843 | 31458 ft | 430 kts | 176° |
| 2026-05-08 19:06 | 40.63276 | 2.65813 | 31276 ft | 418 kts | 176° |
| 2026-05-08 19:06 | 40.60486 | 2.66762 | 30921 ft | 411 kts | 176° |
| 2026-05-08 19:07 | 40.57721 | 2.67693 | 30448 ft | 408 kts | 175° |
| 2026-05-08 19:07 | 40.54979 | 2.68612 | 29988 ft | 405 kts | 175° |
| 2026-05-08 19:07 | 40.52259 | 2.69520 | 29505 ft | 401 kts | 175° |
| 2026-05-08 19:07 | 40.49592 | 2.70631 | 29026 ft | 408 kts | 164° |
| 2026-05-08 19:08 | 40.47061 | 2.72378 | 28519 ft | 411 kts | 159° |
| 2026-05-08 19:08 | 40.44567 | 2.74192 | 28022 ft | 410 kts | 159° |
| 2026-05-08 19:08 | 40.42076 | 2.76004 | 27521 ft | 408 kts | 159° |
| 2026-05-08 19:08 | 40.39602 | 2.77800 | 27027 ft | 407 kts | 159° |
| 2026-05-08 19:09 | 40.37122 | 2.79596 | 26508 ft | 406 kts | 159° |
| 2026-05-08 19:09 | 40.34656 | 2.81380 | 25985 ft | 406 kts | 159° |
| 2026-05-08 19:09 | 40.32174 | 2.83172 | 25454 ft | 406 kts | 159° |
| 2026-05-08 19:09 | 40.29699 | 2.84957 | 24915 ft | 407 kts | 159° |
| 2026-05-08 19:10 | 40.27233 | 2.86740 | 24499 ft | 402 kts | 159° |
| 2026-05-08 19:10 | 40.24772 | 2.88517 | 24057 ft | 401 kts | 158° |
| 2026-05-08 19:10 | 40.22353 | 2.90266 | 23686 ft | 396 kts | 158° |
| 2026-05-08 19:10 | 40.19950 | 2.91998 | 23196 ft | 393 kts | 159° |
| 2026-05-08 19:11 | 40.17572 | 2.93711 | 22725 ft | 389 kts | 158° |
| 2026-05-08 19:11 | 40.15246 | 2.95384 | 22034 ft | 384 kts | 158° |
| 2026-05-08 19:11 | 40.12891 | 2.97081 | 21254 ft | 380 kts | 158° |
| 2026-05-08 19:11 | 40.10586 | 2.98742 | 20597 ft | 374 kts | 158° |
| 2026-05-08 19:12 | 40.08344 | 3.00359 | 20116 ft | 363 kts | 158° |
| 2026-05-08 19:12 | 40.06073 | 3.01586 | 19653 ft | 341 kts | 174° |
| 2026-05-08 19:12 | 40.03786 | 3.01868 | 19202 ft | 322 kts | 192° |
| 2026-05-08 19:12 | 40.01660 | 3.01251 | 18649 ft | 305 kts | 210° |
| 2026-05-08 19:13 | 39.99885 | 2.99973 | 18530 ft | 281 kts | 217° |
| 2026-05-08 19:13 | 39.98207 | 2.98636 | 17613 ft | 289 kts | 217° |
| 2026-05-08 19:13 | 39.96475 | 2.97247 | 16797 ft | 294 kts | 216° |
| 2026-05-08 19:13 | 39.94734 | 2.95858 | 16144 ft | 294 kts | 216° |
| 2026-05-08 19:14 | 39.92998 | 2.94481 | 15547 ft | 292 kts | 216° |
| 2026-05-08 19:14 | 39.91264 | 2.93108 | 14995 ft | 290 kts | 215° |
| 2026-05-08 19:14 | 39.89568 | 2.91768 | 14430 ft | 288 kts | 215° |
| 2026-05-08 19:14 | 39.87839 | 2.90397 | 13846 ft | 287 kts | 214° |
| 2026-05-08 19:15 | 39.86163 | 2.89068 | 13153 ft | 285 kts | 215° |
| 2026-05-08 19:15 | 39.84454 | 2.87712 | 12564 ft | 283 kts | 214° |
| 2026-05-08 19:15 | 39.82774 | 2.86383 | 11972 ft | 281 kts | 214° |
| 2026-05-08 19:15 | 39.81154 | 2.85102 | 11672 ft | 267 kts | 214° |
| 2026-05-08 19:16 | 39.79590 | 2.83866 | 11494 ft | 253 kts | 214° |
| 2026-05-08 19:16 | 39.78163 | 2.82699 | 11341 ft | 237 kts | 220° |
| 2026-05-08 19:16 | 39.76982 | 2.81250 | 10983 ft | 228 kts | 233° |
| 2026-05-08 19:16 | 39.76076 | 2.79571 | 10507 ft | 226 kts | 238° |
| 2026-05-08 19:17 | 39.75204 | 2.77899 | 10047 ft | 226 kts | 237° |
| 2026-05-08 19:17 | 39.74301 | 2.76186 | 9679 ft | 227 kts | 236° |
| 2026-05-08 19:17 | 39.73420 | 2.74519 | 9351 ft | 226 kts | 236° |
| 2026-05-08 19:17 | 39.72531 | 2.72833 | 9006 ft | 226 kts | 236° |
| 2026-05-08 19:18 | 39.71646 | 2.71152 | 8655 ft | 226 kts | 236° |
| 2026-05-08 19:18 | 39.70736 | 2.69424 | 8132 ft | 234 kts | 236° |
| 2026-05-08 19:18 | 39.69835 | 2.67713 | 8006 ft | 225 kts | 236° |
| 2026-05-08 19:18 | 39.68953 | 2.66042 | 8006 ft | 224 kts | 236° |
| 2026-05-08 19:19 | 39.68074 | 2.64378 | 7992 ft | 221 kts | 236° |
| 2026-05-08 19:19 | 39.67223 | 2.62769 | 7890 ft | 212 kts | 236° |
| 2026-05-08 19:19 | 39.66407 | 2.61226 | 7765 ft | 204 kts | 236° |
| 2026-05-08 19:19 | 39.65620 | 2.59737 | 7640 ft | 196 kts | 236° |
| 2026-05-08 19:20 | 39.64862 | 2.58300 | 7481 ft | 191 kts | 235° |
| 2026-05-08 19:20 | 39.64608 | 2.57818 | 7430 ft | 191 kts | 236° |
| 2026-05-08 19:20 | 39.63367 | 2.55470 | 7015 ft | 189 kts | 235° |
| 2026-05-08 19:20 | 39.62624 | 2.54065 | 6798 ft | 189 kts | 235° |
| 2026-05-08 19:21 | 39.61882 | 2.52662 | 6548 ft | 188 kts | 235° |
| 2026-05-08 19:21 | 39.61144 | 2.51264 | 6286 ft | 188 kts | 235° |
| 2026-05-08 19:21 | 39.60413 | 2.49872 | 6013 ft | 186 kts | 235° |
| 2026-05-08 19:21 | 39.59685 | 2.48469 | 5665 ft | 189 kts | 235° |
| 2026-05-08 19:22 | 39.58958 | 2.47060 | 5505 ft | 189 kts | 235° |
| 2026-05-08 19:22 | 39.58229 | 2.45635 | 5504 ft | 190 kts | 235° |
| 2026-05-08 19:22 | 39.57503 | 2.44208 | 5504 ft | 190 kts | 235° |
| 2026-05-08 19:22 | 39.56773 | 2.42771 | 5505 ft | 191 kts | 235° |
| 2026-05-08 19:23 | 39.56041 | 2.41344 | 5506 ft | 190 kts | 235° |
| 2026-05-08 19:23 | 39.55310 | 2.39915 | 5500 ft | 190 kts | 235° |
| 2026-05-08 19:23 | 39.54537 | 2.38517 | 5494 ft | 191 kts | 225° |
| 2026-05-08 19:23 | 39.53399 | 2.37721 | 5242 ft | 188 kts | 196° |
| 2026-05-08 19:24 | 39.52129 | 2.37297 | 4930 ft | 189 kts | 192° |
| 2026-05-08 19:24 | 39.50854 | 2.36887 | 4613 ft | 190 kts | 192° |
| 2026-05-08 19:24 | 39.50003 | 2.36599 | 4400 ft | 190 kts | 193° |
| 2026-05-08 19:24 | 39.48704 | 2.36166 | 4090 ft | 190 kts | 192° |
| 2026-05-08 19:25 | 39.47400 | 2.35822 | 3610 ft | 197 kts | 178° |
| 2026-05-08 19:25 | 39.46120 | 2.36393 | 3122 ft | 198 kts | 139° |
| 2026-05-08 19:25 | 39.45452 | 2.37853 | 2921 ft | 187 kts | 99° |
| 2026-05-08 19:25 | 39.45478 | 2.39491 | 2783 ft | 181 kts | 84° |
| 2026-05-08 19:26 | 39.45641 | 2.41141 | 2369 ft | 187 kts | 83° |
| 2026-05-08 19:26 | 39.45822 | 2.42768 | 2301 ft | 180 kts | 82° |
| 2026-05-08 19:26 | 39.46002 | 2.44353 | 2300 ft | 177 kts | 82° |
| 2026-05-08 19:26 | 39.46179 | 2.45922 | 2301 ft | 177 kts | 82° |
| 2026-05-08 19:27 | 39.46357 | 2.47492 | 2314 ft | 176 kts | 82° |
| 2026-05-08 19:27 | 39.46541 | 2.49062 | 2303 ft | 177 kts | 82° |
| 2026-05-08 19:27 | 39.46727 | 2.50627 | 2304 ft | 176 kts | 82° |
| 2026-05-08 19:27 | 39.46912 | 2.52197 | 2306 ft | 176 kts | 82° |
| 2026-05-08 19:28 | 39.47095 | 2.53749 | 2321 ft | 174 kts | 82° |
| 2026-05-08 19:28 | 39.47290 | 2.55248 | 2300 ft | 155 kts | 77° |
| 2026-05-08 19:28 | 39.47788 | 2.56488 | 2305 ft | 157 kts | 60° |
| 2026-05-08 19:28 | 39.48364 | 2.57695 | 2280 ft | 158 kts | 60° |
| 2026-05-08 19:29 | 39.48936 | 2.58898 | 2139 ft | 153 kts | 60° |
| 2026-05-08 19:29 | 39.49468 | 2.60015 | 1973 ft | 145 kts | 62° |
| 2026-05-08 19:29 | 39.49995 | 2.61125 | 1787 ft | 141 kts | 61° |
| 2026-05-08 19:29 | 39.50488 | 2.62161 | 1612 ft | 131 kts | 61° |
| 2026-05-08 19:30 | 39.50963 | 2.63161 | 1430 ft | 129 kts | 62° |
| 2026-05-08 19:30 | 39.51428 | 2.64141 | 1268 ft | 127 kts | 60° |
| 2026-05-08 19:30 | 39.51890 | 2.65110 | 1088 ft | 126 kts | 60° |
| 2026-05-08 19:30 | 39.52358 | 2.66084 | 867 ft | 129 kts | 59° |
| 2026-05-08 19:31 | 39.52833 | 2.67068 | 737 ft | 127 kts | 60° |
| 2026-05-08 19:31 | 39.53298 | 2.68069 | 570 ft | 131 kts | 60° |
| 2026-05-08 19:31 | 39.53777 | 2.69077 | 374 ft | 130 kts | 58° |
| 2026-05-08 19:31 | 39.54243 | 2.70058 | 160 ft | 128 kts | 58° |
| 2026-05-08 19:32 | 39.54713 | 2.71051 | 71 ft | 130 kts | 59° |
| 2026-05-08 19:32 | 39.55147 | 2.71968 | 37 ft | 105 kts | 59° |
| 2026-05-08 19:32 | 39.55406 | 2.72533 | 37 ft | 51 kts | 58° |
| 2026-05-08 19:32 | 39.55494 | 2.72899 | 38 ft | 34 kts | 89° |
| 2026-05-08 19:33 | 39.55499 | 2.73080 | 38 ft | 0 kts | 89° |
| 2026-05-08 19:33 | 39.55499 | 2.73081 | 38 ft | 0 kts | 89° |
| 2026-05-08 19:33 | 39.55499 | 2.73082 | 38 ft | 0 kts | 89° |
| 2026-05-08 19:33 | 39.55499 | 2.73083 | 38 ft | 0 kts | 89° |
| 2026-05-08 19:34 | 39.55500 | 2.73094 | 38 ft | 4 kts | 88° |
| 2026-05-08 19:34 | 39.55509 | 2.73180 | 38 ft | 12 kts | 74° |
| 2026-05-08 19:34 | 39.55554 | 2.73288 | 37 ft | 15 kts | 58° |
| 2026-05-08 19:34 | 39.55616 | 2.73421 | 38 ft | 19 kts | 61° |
| 2026-05-08 19:35 | 39.55559 | 2.73548 | 38 ft | 19 kts | 149° |
| 2026-05-08 19:35 | 39.55442 | 2.73641 | 38 ft | 21 kts | 148° |
| 2026-05-08 19:35 | 39.55317 | 2.73739 | 38 ft | 21 kts | 148° |
| 2026-05-08 19:35 | 39.55189 | 2.73843 | 38 ft | 22 kts | 148° |
| 2026-05-08 19:36 | 39.55058 | 2.73948 | 38 ft | 23 kts | 148° |
| 2026-05-08 19:36 | 39.54920 | 2.74051 | 37 ft | 23 kts | 150° |
| 2026-05-08 19:36 | 39.54779 | 2.74101 | 36 ft | 21 kts | 222° |
| 2026-05-08 19:36 | 39.54698 | 2.73936 | 38 ft | 22 kts | 238° |
| 2026-05-08 19:37 | 39.54617 | 2.73767 | 38 ft | 22 kts | 238° |
| 2026-05-08 19:37 | 39.54616 | 2.73630 | 38 ft | 15 kts | 335° |
| 2026-05-08 19:37 | 39.54714 | 2.73574 | 38 ft | 16 kts | 328° |
| 2026-05-08 19:37 | 39.54752 | 2.73586 | 38 ft | 4 kts | 107° |
| 2026-05-08 19:38 | 39.54753 | 2.73621 | 38 ft | 4 kts | 65° |
| 2026-05-08 19:38 | 39.54755 | 2.73625 | 38 ft | 0 kts | 61° |
| 2026-05-08 19:38 | 39.54755 | 2.73626 | 38 ft | 0 kts | 61° |